ZGSZ

Shenzhen Bao'an International Airport

Shenzhen, China
TAF ZGSZ 161909Z 1700/1724 03004MPS 6000 SCT040 TX19/1706Z TN12/1723Z
Issued Valid From Valid To
Jan-16 @ 19:09 UTC
(6 hours ago)
Jan-17 @ 00:00 UTC
(45 minutes ago)
Jan-18 @ 00:00 UTC
(in 23 hours)
Jan-17 @ 00:00 to Jan-18 @ 00:00
TAF ZGSZ 161909Z 1700/1724 03004MPS 6000 SCT040 TX19/1706Z TN12/1723Z
Wind Visibility Clouds
30° at 8 knots 6,003 meters
  • Scattered at 4,000' AGL
TAF ZGSZ 161909Z 1700/1724 03004MPS 6000 SCT040 TX19/1706Z TN12/1723Z
Issued Jan-16 @ 19:09 UTC
(6 hours ago)
Valid From Jan-17 @ 00:00 UTC
(45 minutes ago)
Valid To Jan-18 @ 00:00 UTC
(in 23 hours)
Jan-17 @ 00:00 - Jan-18 @ 00:00
Wind Visibility
30° at 8 knots 6,003 meters
Clouds
  • Scattered at 4,000' AGL